sensor_id;sensor_type;location;lat;lon;timestamp;P1;P2;P0
43479;PMS5003;29067;35.492;-97.520;2023-12-29T00:00:40;6;6;
43479;PMS5003;29067;35.492;-97.520;2023-12-29T00:03:08;5;5;
43479;PMS5003;29067;35.492;-97.520;2023-12-29T00:05:36;7;7;
43479;PMS5003;29067;35.492;-97.520;2023-12-29T00:08:04;5;5;
43479;PMS5003;29067;35.492;-97.520;2023-12-29T00:10:33;6;5;
43479;PMS5003;29067;35.492;-97.520;2023-12-29T00:13:01;6;5;
43479;PMS5003;29067;35.492;-97.520;2023-12-29T00:15:29;6;5;
43479;PMS5003;29067;35.492;-97.520;2023-12-29T00:17:57;6;6;
43479;PMS5003;29067;35.492;-97.520;2023-12-29T00:20:25;6;5;
43479;PMS5003;29067;35.492;-97.520;2023-12-29T00:22:53;10;9;
43479;PMS5003;29067;35.492;-97.520;2023-12-29T00:25:21;7;7;
43479;PMS5003;29067;35.492;-97.520;2023-12-29T00:27:49;7;7;
43479;PMS5003;29067;35.492;-97.520;2023-12-29T00:30:17;6;5;
43479;PMS5003;29067;35.492;-97.520;2023-12-29T00:32:45;5;5;
43479;PMS5003;29067;35.492;-97.520;2023-12-29T00:35:13;6;6;
43479;PMS5003;29067;35.492;-97.520;2023-12-29T00:37:41;7;7;
43479;PMS5003;29067;35.492;-97.520;2023-12-29T00:40:10;6;6;
43479;PMS5003;29067;35.492;-97.520;2023-12-29T00:42:38;10;7;
43479;PMS5003;29067;35.492;-97.520;2023-12-29T00:45:07;7;7;
43479;PMS5003;29067;35.492;-97.520;2023-12-29T00:47:35;11;10;
43479;PMS5003;29067;35.492;-97.520;2023-12-29T00:50:04;7;7;
43479;PMS5003;29067;35.492;-97.520;2023-12-29T00:52:32;5;5;
43479;PMS5003;29067;35.492;-97.520;2023-12-29T00:55:01;6;6;
43479;PMS5003;29067;35.492;-97.520;2023-12-29T00:57:29;7;5;
43479;PMS5003;29067;35.492;-97.520;2023-12-29T00:59:57;6;6;
43479;PMS5003;29067;35.492;-97.520;2023-12-29T01:02:26;7;6;
43479;PMS5003;29067;35.492;-97.520;2023-12-29T01:04:54;6;6;
43479;PMS5003;29067;35.492;-97.520;2023-12-29T01:07:23;6;5;
43479;PMS5003;29067;35.492;-97.520;2023-12-29T01:09:51;6;6;
43479;PMS5003;29067;35.492;-97.520;2023-12-29T01:12:19;11;9;
43479;PMS5003;29067;35.492;-97.520;2023-12-29T01:14:47;6;6;
43479;PMS5003;29067;35.492;-97.520;2023-12-29T01:17:15;7;6;
43479;PMS5003;29067;35.492;-97.520;2023-12-29T01:19:43;6;5;
43479;PMS5003;29067;35.492;-97.520;2023-12-29T01:22:11;17;17;
43479;PMS5003;29067;35.492;-97.520;2023-12-29T01:24:39;22;19;
43479;PMS5003;29067;35.492;-97.520;2023-12-29T01:27:07;23;23;
43479;PMS5003;29067;35.492;-97.520;2023-12-29T01:29:35;24;23;
43479;PMS5003;29067;35.492;-97.520;2023-12-29T01:32:04;17;14;
43479;PMS5003;29067;35.492;-97.520;2023-12-29T01:34:32;35;34;
43479;PMS5003;29067;35.492;-97.520;2023-12-29T01:37:02;57;57;
43479;PMS5003;29067;35.492;-97.520;2023-12-29T01:39:31;45;42;
43479;PMS5003;29067;35.492;-97.520;2023-12-29T01:42:00;67;65;
43479;PMS5003;29067;35.492;-97.520;2023-12-29T01:44:28;98;98;
43479;PMS5003;29067;35.492;-97.520;2023-12-29T01:46:58;89;88;
43479;PMS5003;29067;35.492;-97.520;2023-12-29T01:49:27;138;137;
43479;PMS5003;29067;35.492;-97.520;2023-12-29T01:51:56;123;122;
43479;PMS5003;29067;35.492;-97.520;2023-12-29T01:54:28;39;39;
43479;PMS5003;29067;35.492;-97.520;2023-12-29T01:57:00;59;57;
43479;PMS5003;29067;35.492;-97.520;2023-12-29T01:59:29;42;42;
43479;PMS5003;29067;35.492;-97.520;2023-12-29T02:01:57;14;9;
43479;PMS5003;29067;35.492;-97.520;2023-12-29T02:04:26;80;78;
43479;PMS5003;29067;35.492;-97.520;2023-12-29T02:06:54;51;50;
43479;PMS5003;29067;35.492;-97.520;2023-12-29T02:09:22;55;54;
43479;PMS5003;29067;35.492;-97.520;2023-12-29T02:11:50;13;9;
43479;PMS5003;29067;35.492;-97.520;2023-12-29T02:14:18;51;51;
43479;PMS5003;29067;35.492;-97.520;2023-12-29T02:16:52;64;64;
43479;PMS5003;29067;35.492;-97.520;2023-12-29T02:19:30;52;52;
43479;PMS5003;29067;35.492;-97.520;2023-12-29T02:22:04;18;17;
43479;PMS5003;29067;35.492;-97.520;2023-12-29T02:24:33;67;65;
43479;PMS5003;29067;35.492;-97.520;2023-12-29T02:27:04;31;28;
43479;PMS5003;29067;35.492;-97.520;2023-12-29T02:29:44;38;38;
43479;PMS5003;29067;35.492;-97.520;2023-12-29T02:32:20;19;18;
43479;PMS5003;29067;35.492;-97.520;2023-12-29T02:34:50;38;36;
43479;PMS5003;29067;35.492;-97.520;2023-12-29T02:37:18;19;18;
43479;PMS5003;29067;35.492;-97.520;2023-12-29T02:39:47;52;50;
43479;PMS5003;29067;35.492;-97.520;2023-12-29T02:42:15;42;39;
43479;PMS5003;29067;35.492;-97.520;2023-12-29T02:44:44;26;21;
43479;PMS5003;29067;35.492;-97.520;2023-12-29T02:47:11;45;43;
43479;PMS5003;29067;35.492;-97.520;2023-12-29T02:49:39;22;19;
43479;PMS5003;29067;35.492;-97.520;2023-12-29T02:52:07;10;10;
43479;PMS5003;29067;35.492;-97.520;2023-12-29T02:54:35;11;9;
43479;PMS5003;29067;35.492;-97.520;2023-12-29T02:57:03;10;10;
43479;PMS5003;29067;35.492;-97.520;2023-12-29T02:59:31;10;9;
43479;PMS5003;29067;35.492;-97.520;2023-12-29T03:02:00;14;11;
43479;PMS5003;29067;35.492;-97.520;2023-12-29T03:04:28;11;11;
43479;PMS5003;29067;35.492;-97.520;2023-12-29T03:06:56;9;9;
43479;PMS5003;29067;35.492;-97.520;2023-12-29T03:09:24;9;9;
43479;PMS5003;29067;35.492;-97.520;2023-12-29T03:11:52;10;10;
43479;PMS5003;29067;35.492;-97.520;2023-12-29T03:14:20;9;9;
43479;PMS5003;29067;35.492;-97.520;2023-12-29T03:16:48;9;9;
43479;PMS5003;29067;35.492;-97.520;2023-12-29T03:19:16;10;9;
43479;PMS5003;29067;35.492;-97.520;2023-12-29T03:21:44;12;9;
43479;PMS5003;29067;35.492;-97.520;2023-12-29T03:24:13;10;9;
43479;PMS5003;29067;35.492;-97.520;2023-12-29T03:26:43;9;8;
43479;PMS5003;29067;35.492;-97.520;2023-12-29T03:29:11;10;10;
43479;PMS5003;29067;35.492;-97.520;2023-12-29T03:31:39;12;9;
43479;PMS5003;29067;35.492;-97.520;2023-12-29T03:34:27;13;12;
43479;PMS5003;29067;35.492;-97.520;2023-12-29T03:36:55;10;9;
43479;PMS5003;29067;35.492;-97.520;2023-12-29T03:39:23;13;12;
43479;PMS5003;29067;35.492;-97.520;2023-12-29T03:41:52;9;9;
43479;PMS5003;29067;35.492;-97.520;2023-12-29T03:44:19;8;8;
43479;PMS5003;29067;35.492;-97.520;2023-12-29T03:46:48;9;9;
43479;PMS5003;29067;35.492;-97.520;2023-12-29T03:49:16;10;9;
43479;PMS5003;29067;35.492;-97.520;2023-12-29T03:51:44;12;12;
43479;PMS5003;29067;35.492;-97.520;2023-12-29T03:54:12;9;8;
43479;PMS5003;29067;35.492;-97.520;2023-12-29T03:56:40;9;6;
43479;PMS5003;29067;35.492;-97.520;2023-12-29T03:59:08;9;9;
43479;PMS5003;29067;35.492;-97.520;2023-12-29T04:01:36;8;8;
43479;PMS5003;29067;35.492;-97.520;2023-12-29T04:04:05;10;10;
43479;PMS5003;29067;35.492;-97.520;2023-12-29T04:06:33;8;8;
43479;PMS5003;29067;35.492;-97.520;2023-12-29T04:09:01;12;12;
43479;PMS5003;29067;35.492;-97.520;2023-12-29T04:11:29;6;6;
43479;PMS5003;29067;35.492;-97.520;2023-12-29T04:13:57;8;8;
43479;PMS5003;29067;35.492;-97.520;2023-12-29T04:16:25;12;6;
43479;PMS5003;29067;35.492;-97.520;2023-12-29T04:18:53;10;10;
43479;PMS5003;29067;35.492;-97.520;2023-12-29T04:21:23;9;8;
43479;PMS5003;29067;35.492;-97.520;2023-12-29T04:23:51;9;8;
43479;PMS5003;29067;35.492;-97.520;2023-12-29T04:26:19;6;6;
43479;PMS5003;29067;35.492;-97.520;2023-12-29T04:28:47;9;8;
43479;PMS5003;29067;35.492;-97.520;2023-12-29T04:31:15;11;8;
43479;PMS5003;29067;35.492;-97.520;2023-12-29T04:33:43;8;8;
43479;PMS5003;29067;35.492;-97.520;2023-12-29T04:36:12;8;8;
43479;PMS5003;29067;35.492;-97.520;2023-12-29T04:38:40;6;6;
43479;PMS5003;29067;35.492;-97.520;2023-12-29T04:41:08;9;8;
43479;PMS5003;29067;35.492;-97.520;2023-12-29T04:43:38;8;8;
43479;PMS5003;29067;35.492;-97.520;2023-12-29T04:46:06;6;5;
43479;PMS5003;29067;35.492;-97.520;2023-12-29T04:48:34;9;8;
43479;PMS5003;29067;35.492;-97.520;2023-12-29T04:51:02;6;6;
43479;PMS5003;29067;35.492;-97.520;2023-12-29T04:53:30;6;6;
43479;PMS5003;29067;35.492;-97.520;2023-12-29T04:55:58;9;8;
43479;PMS5003;29067;35.492;-97.520;2023-12-29T04:58:26;9;9;
43479;PMS5003;29067;35.492;-97.520;2023-12-29T05:00:54;8;6;
43479;PMS5003;29067;35.492;-97.520;2023-12-29T05:03:23;9;8;
43479;PMS5003;29067;35.492;-97.520;2023-12-29T05:05:51;9;8;
43479;PMS5003;29067;35.492;-97.520;2023-12-29T05:08:19;6;6;
43479;PMS5003;29067;35.492;-97.520;2023-12-29T05:10:47;10;8;
43479;PMS5003;29067;35.492;-97.520;2023-12-29T05:13:15;6;5;
43479;PMS5003;29067;35.492;-97.520;2023-12-29T05:15:43;6;5;
43479;PMS5003;29067;35.492;-97.520;2023-12-29T05:18:11;4;4;
43479;PMS5003;29067;35.492;-97.520;2023-12-29T05:20:39;8;8;
43479;PMS5003;29067;35.492;-97.520;2023-12-29T05:23:08;5;5;
43479;PMS5003;29067;35.492;-97.520;2023-12-29T05:25:36;5;5;
43479;PMS5003;29067;35.492;-97.520;2023-12-29T05:28:05;5;5;
43479;PMS5003;29067;35.492;-97.520;2023-12-29T05:30:33;6;6;
43479;PMS5003;29067;35.492;-97.520;2023-12-29T05:33:01;5;5;
43479;PMS5003;29067;35.492;-97.520;2023-12-29T05:35:29;6;5;
43479;PMS5003;29067;35.492;-97.520;2023-12-29T05:37:57;5;4;
43479;PMS5003;29067;35.492;-97.520;2023-12-29T05:40:26;5;5;
43479;PMS5003;29067;35.492;-97.520;2023-12-29T05:42:54;4;4;
43479;PMS5003;29067;35.492;-97.520;2023-12-29T05:45:22;5;5;
43479;PMS5003;29067;35.492;-97.520;2023-12-29T05:47:50;5;4;
43479;PMS5003;29067;35.492;-97.520;2023-12-29T05:50:18;4;4;
43479;PMS5003;29067;35.492;-97.520;2023-12-29T05:52:46;6;4;
43479;PMS5003;29067;35.492;-97.520;2023-12-29T05:55:14;4;4;
43479;PMS5003;29067;35.492;-97.520;2023-12-29T05:57:43;8;8;
43479;PMS5003;29067;35.492;-97.520;2023-12-29T06:00:11;6;5;
43479;PMS5003;29067;35.492;-97.520;2023-12-29T06:02:41;4;4;
43479;PMS5003;29067;35.492;-97.520;2023-12-29T06:05:10;4;4;
43479;PMS5003;29067;35.492;-97.520;2023-12-29T06:07:38;2;2;
43479;PMS5003;29067;35.492;-97.520;2023-12-29T06:10:06;4;4;
43479;PMS5003;29067;35.492;-97.520;2023-12-29T06:12:35;4;4;
43479;PMS5003;29067;35.492;-97.520;2023-12-29T06:15:03;4;4;
43479;PMS5003;29067;35.492;-97.520;2023-12-29T06:17:32;2;2;
43479;PMS5003;29067;35.492;-97.520;2023-12-29T06:20:00;4;4;
43479;PMS5003;29067;35.492;-97.520;2023-12-29T06:22:28;4;4;
43479;PMS5003;29067;35.492;-97.520;2023-12-29T06:24:57;4;4;
43479;PMS5003;29067;35.492;-97.520;2023-12-29T06:27:25;5;5;
43479;PMS5003;29067;35.492;-97.520;2023-12-29T06:29:53;2;2;
43479;PMS5003;29067;35.492;-97.520;2023-12-29T06:32:21;4;4;
43479;PMS5003;29067;35.492;-97.520;2023-12-29T06:34:49;4;4;
43479;PMS5003;29067;35.492;-97.520;2023-12-29T06:37:17;2;2;
43479;PMS5003;29067;35.492;-97.520;2023-12-29T06:39:46;5;5;
43479;PMS5003;29067;35.492;-97.520;2023-12-29T06:42:14;5;4;
43479;PMS5003;29067;35.492;-97.520;2023-12-29T06:44:42;2;2;
43479;PMS5003;29067;35.492;-97.520;2023-12-29T06:47:11;4;4;
43479;PMS5003;29067;35.492;-97.520;2023-12-29T06:49:39;4;2;
43479;PMS5003;29067;35.492;-97.520;2023-12-29T06:52:07;4;4;
43479;PMS5003;29067;35.492;-97.520;2023-12-29T06:54:35;2;2;
43479;PMS5003;29067;35.492;-97.520;2023-12-29T06:57:04;5;4;
43479;PMS5003;29067;35.492;-97.520;2023-12-29T06:59:32;2;2;
43479;PMS5003;29067;35.492;-97.520;2023-12-29T07:02:00;6;6;
43479;PMS5003;29067;35.492;-97.520;2023-12-29T07:04:28;5;4;
43479;PMS5003;29067;35.492;-97.520;2023-12-29T07:06:56;4;4;
43479;PMS5003;29067;35.492;-97.520;2023-12-29T07:09:24;4;2;
43479;PMS5003;29067;35.492;-97.520;2023-12-29T07:11:52;4;4;
43479;PMS5003;29067;35.492;-97.520;2023-12-29T07:14:21;5;4;
43479;PMS5003;29067;35.492;-97.520;2023-12-29T07:16:49;5;2;
43479;PMS5003;29067;35.492;-97.520;2023-12-29T07:19:17;5;2;
43479;PMS5003;29067;35.492;-97.520;2023-12-29T07:21:45;6;4;
43479;PMS5003;29067;35.492;-97.520;2023-12-29T07:24:13;4;2;
43479;PMS5003;29067;35.492;-97.520;2023-12-29T07:26:41;5;4;
43479;PMS5003;29067;35.492;-97.520;2023-12-29T07:29:09;4;2;
43479;PMS5003;29067;35.492;-97.520;2023-12-29T07:31:38;4;2;
43479;PMS5003;29067;35.492;-97.520;2023-12-29T07:34:06;5;5;
43479;PMS5003;29067;35.492;-97.520;2023-12-29T07:36:37;4;4;
43479;PMS5003;29067;35.492;-97.520;2023-12-29T07:39:06;5;5;
43479;PMS5003;29067;35.492;-97.520;2023-12-29T07:41:34;4;4;
43479;PMS5003;29067;35.492;-97.520;2023-12-29T07:44:07;4;4;
43479;PMS5003;29067;35.492;-97.520;2023-12-29T07:46:37;4;4;
43479;PMS5003;29067;35.492;-97.520;2023-12-29T07:49:06;4;4;
43479;PMS5003;29067;35.492;-97.520;2023-12-29T07:51:38;2;2;
43479;PMS5003;29067;35.492;-97.520;2023-12-29T07:54:06;5;5;
43479;PMS5003;29067;35.492;-97.520;2023-12-29T07:56:34;6;5;
43479;PMS5003;29067;35.492;-97.520;2023-12-29T07:59:03;6;4;
43479;PMS5003;29067;35.492;-97.520;2023-12-29T08:01:32;4;2;
43479;PMS5003;29067;35.492;-97.520;2023-12-29T08:04:00;4;2;
43479;PMS5003;29067;35.492;-97.520;2023-12-29T08:06:29;4;4;
43479;PMS5003;29067;35.492;-97.520;2023-12-29T08:08:57;4;2;
43479;PMS5003;29067;35.492;-97.520;2023-12-29T08:11:25;5;4;
43479;PMS5003;29067;35.492;-97.520;2023-12-29T08:13:53;2;2;
43479;PMS5003;29067;35.492;-97.520;2023-12-29T08:16:21;4;2;
43479;PMS5003;29067;35.492;-97.520;2023-12-29T08:18:49;2;2;
43479;PMS5003;29067;35.492;-97.520;2023-12-29T08:21:18;2;2;
43479;PMS5003;29067;35.492;-97.520;2023-12-29T08:23:46;5;4;
43479;PMS5003;29067;35.492;-97.520;2023-12-29T08:26:14;5;5;
43479;PMS5003;29067;35.492;-97.520;2023-12-29T08:28:42;2;2;
43479;PMS5003;29067;35.492;-97.520;2023-12-29T08:31:10;4;2;
43479;PMS5003;29067;35.492;-97.520;2023-12-29T08:33:39;1;1;
43479;PMS5003;29067;35.492;-97.520;2023-12-29T08:36:07;2;1;
43479;PMS5003;29067;35.492;-97.520;2023-12-29T08:38:35;2;2;
43479;PMS5003;29067;35.492;-97.520;2023-12-29T08:41:03;5;4;
43479;PMS5003;29067;35.492;-97.520;2023-12-29T08:43:31;2;2;
43479;PMS5003;29067;35.492;-97.520;2023-12-29T08:45:59;2;2;
43479;PMS5003;29067;35.492;-97.520;2023-12-29T08:48:28;4;4;
43479;PMS5003;29067;35.492;-97.520;2023-12-29T08:50:56;4;4;
43479;PMS5003;29067;35.492;-97.520;2023-12-29T08:53:24;2;2;
43479;PMS5003;29067;35.492;-97.520;2023-12-29T08:55:52;4;4;
43479;PMS5003;29067;35.492;-97.520;2023-12-29T08:58:20;5;4;
43479;PMS5003;29067;35.492;-97.520;2023-12-29T09:00:49;5;4;
43479;PMS5003;29067;35.492;-97.520;2023-12-29T09:03:17;1;1;
43479;PMS5003;29067;35.492;-97.520;2023-12-29T09:05:45;2;2;
43479;PMS5003;29067;35.492;-97.520;2023-12-29T09:08:13;4;2;
43479;PMS5003;29067;35.492;-97.520;2023-12-29T09:10:41;4;2;
43479;PMS5003;29067;35.492;-97.520;2023-12-29T09:13:09;4;4;
43479;PMS5003;29067;35.492;-97.520;2023-12-29T09:15:38;2;2;
43479;PMS5003;29067;35.492;-97.520;2023-12-29T09:18:06;2;2;
43479;PMS5003;29067;35.492;-97.520;2023-12-29T09:20:34;1;1;
43479;PMS5003;29067;35.492;-97.520;2023-12-29T09:23:02;2;2;
43479;PMS5003;29067;35.492;-97.520;2023-12-29T09:25:30;2;2;
43479;PMS5003;29067;35.492;-97.520;2023-12-29T09:27:58;1;1;
43479;PMS5003;29067;35.492;-97.520;2023-12-29T09:30:27;1;1;
43479;PMS5003;29067;35.492;-97.520;2023-12-29T09:32:55;2;2;
43479;PMS5003;29067;35.492;-97.520;2023-12-29T09:35:23;2;1;
43479;PMS5003;29067;35.492;-97.520;2023-12-29T09:37:51;1;1;
43479;PMS5003;29067;35.492;-97.520;2023-12-29T09:40:19;2;1;
43479;PMS5003;29067;35.492;-97.520;2023-12-29T09:42:47;6;2;
43479;PMS5003;29067;35.492;-97.520;2023-12-29T09:45:16;2;2;
43479;PMS5003;29067;35.492;-97.520;2023-12-29T09:47:50;4;4;
43479;PMS5003;29067;35.492;-97.520;2023-12-29T09:50:19;2;1;
43479;PMS5003;29067;35.492;-97.520;2023-12-29T09:52:48;2;2;
43479;PMS5003;29067;35.492;-97.520;2023-12-29T09:55:16;2;2;
43479;PMS5003;29067;35.492;-97.520;2023-12-29T09:57:46;4;4;
43479;PMS5003;29067;35.492;-97.520;2023-12-29T10:00:15;2;1;
43479;PMS5003;29067;35.492;-97.520;2023-12-29T10:02:46;2;2;
43479;PMS5003;29067;35.492;-97.520;2023-12-29T10:05:15;2;2;
43479;PMS5003;29067;35.492;-97.520;2023-12-29T10:07:43;1;1;
43479;PMS5003;29067;35.492;-97.520;2023-12-29T10:10:15;2;2;
43479;PMS5003;29067;35.492;-97.520;2023-12-29T10:12:44;1;1;
43479;PMS5003;29067;35.492;-97.520;2023-12-29T10:15:17;2;2;
43479;PMS5003;29067;35.492;-97.520;2023-12-29T10:17:51;2;2;
43479;PMS5003;29067;35.492;-97.520;2023-12-29T10:20:30;2;2;
43479;PMS5003;29067;35.492;-97.520;2023-12-29T10:23:10;2;2;
43479;PMS5003;29067;35.492;-97.520;2023-12-29T10:25:43;1;1;
43479;PMS5003;29067;35.492;-97.520;2023-12-29T10:28:12;4;4;
43479;PMS5003;29067;35.492;-97.520;2023-12-29T10:30:40;2;2;
43479;PMS5003;29067;35.492;-97.520;2023-12-29T10:33:09;2;2;
43479;PMS5003;29067;35.492;-97.520;2023-12-29T10:35:37;2;2;
43479;PMS5003;29067;35.492;-97.520;2023-12-29T10:38:09;2;2;
43479;PMS5003;29067;35.492;-97.520;2023-12-29T10:40:37;4;2;
43479;PMS5003;29067;35.492;-97.520;2023-12-29T10:43:06;2;2;
43479;PMS5003;29067;35.492;-97.520;2023-12-29T10:45:34;2;2;
43479;PMS5003;29067;35.492;-97.520;2023-12-29T10:48:03;2;1;
43479;PMS5003;29067;35.492;-97.520;2023-12-29T10:50:33;2;2;
43479;PMS5003;29067;35.492;-97.520;2023-12-29T10:53:11;2;2;
43479;PMS5003;29067;35.492;-97.520;2023-12-29T10:55:39;1;1;
43479;PMS5003;29067;35.492;-97.520;2023-12-29T10:58:07;2;2;
43479;PMS5003;29067;35.492;-97.520;2023-12-29T11:00:36;1;1;
43479;PMS5003;29067;35.492;-97.520;2023-12-29T11:03:04;2;2;
43479;PMS5003;29067;35.492;-97.520;2023-12-29T11:05:32;4;2;
43479;PMS5003;29067;35.492;-97.520;2023-12-29T11:08:00;4;2;
43479;PMS5003;29067;35.492;-97.520;2023-12-29T11:10:28;2;2;
43479;PMS5003;29067;35.492;-97.520;2023-12-29T11:12:57;1;1;
43479;PMS5003;29067;35.492;-97.520;2023-12-29T11:15:25;2;2;
43479;PMS5003;29067;35.492;-97.520;2023-12-29T11:17:54;4;2;
43479;PMS5003;29067;35.492;-97.520;2023-12-29T11:20:23;2;2;
43479;PMS5003;29067;35.492;-97.520;2023-12-29T11:22:53;4;2;
43479;PMS5003;29067;35.492;-97.520;2023-12-29T11:25:21;2;2;
43479;PMS5003;29067;35.492;-97.520;2023-12-29T11:27:49;2;2;
43479;PMS5003;29067;35.492;-97.520;2023-12-29T11:30:19;2;1;
43479;PMS5003;29067;35.492;-97.520;2023-12-29T11:32:47;2;2;
43479;PMS5003;29067;35.492;-97.520;2023-12-29T11:35:21;1;1;
43479;PMS5003;29067;35.492;-97.520;2023-12-29T11:37:59;1;1;
43479;PMS5003;29067;35.492;-97.520;2023-12-29T11:40:47;2;2;
43479;PMS5003;29067;35.492;-97.520;2023-12-29T11:43:19;4;4;
43479;PMS5003;29067;35.492;-97.520;2023-12-29T11:45:47;1;1;
43479;PMS5003;29067;35.492;-97.520;2023-12-29T11:48:16;2;2;
43479;PMS5003;29067;35.492;-97.520;2023-12-29T11:51:29;2;2;
43479;PMS5003;29067;35.492;-97.520;2023-12-29T11:53:58;2;2;
43479;PMS5003;29067;35.492;-97.520;2023-12-29T11:56:30;2;2;
43479;PMS5003;29067;35.492;-97.520;2023-12-29T11:59:11;4;4;
43479;PMS5003;29067;35.492;-97.520;2023-12-29T12:02:59;2;2;
43479;PMS5003;29067;35.492;-97.520;2023-12-29T12:05:44;4;2;
43479;PMS5003;29067;35.492;-97.520;2023-12-29T12:08:26;2;2;
43479;PMS5003;29067;35.492;-97.520;2023-12-29T12:10:55;1;1;
43479;PMS5003;29067;35.492;-97.520;2023-12-29T12:13:56;4;4;
43479;PMS5003;29067;35.492;-97.520;2023-12-29T12:16:57;2;2;
43479;PMS5003;29067;35.492;-97.520;2023-12-29T12:19:24;2;2;
43479;PMS5003;29067;35.492;-97.520;2023-12-29T12:21:54;2;2;
43479;PMS5003;29067;35.492;-97.520;2023-12-29T12:24:22;2;2;
43479;PMS5003;29067;35.492;-97.520;2023-12-29T12:26:50;2;2;
43479;PMS5003;29067;35.492;-97.520;2023-12-29T12:29:18;4;4;
43479;PMS5003;29067;35.492;-97.520;2023-12-29T12:31:54;1;1;
43479;PMS5003;29067;35.492;-97.520;2023-12-29T12:34:23;5;4;
43479;PMS5003;29067;35.492;-97.520;2023-12-29T12:36:51;2;2;
43479;PMS5003;29067;35.492;-97.520;2023-12-29T12:39:20;2;2;
43479;PMS5003;29067;35.492;-97.520;2023-12-29T12:41:49;4;4;
43479;PMS5003;29067;35.492;-97.520;2023-12-29T12:44:17;4;4;
43479;PMS5003;29067;35.492;-97.520;2023-12-29T12:46:49;4;4;
43479;PMS5003;29067;35.492;-97.520;2023-12-29T12:49:18;4;4;
43479;PMS5003;29067;35.492;-97.520;2023-12-29T12:51:47;4;4;
43479;PMS5003;29067;35.492;-97.520;2023-12-29T12:54:17;2;2;
43479;PMS5003;29067;35.492;-97.520;2023-12-29T12:56:46;6;5;
43479;PMS5003;29067;35.492;-97.520;2023-12-29T12:59:15;5;4;
43479;PMS5003;29067;35.492;-97.520;2023-12-29T13:01:43;5;5;
43479;PMS5003;29067;35.492;-97.520;2023-12-29T13:04:12;4;2;
43479;PMS5003;29067;35.492;-97.520;2023-12-29T13:06:40;4;4;
43479;PMS5003;29067;35.492;-97.520;2023-12-29T13:09:10;5;5;
43479;PMS5003;29067;35.492;-97.520;2023-12-29T13:11:39;5;5;
43479;PMS5003;29067;35.492;-97.520;2023-12-29T13:14:07;4;4;
43479;PMS5003;29067;35.492;-97.520;2023-12-29T13:16:36;5;4;
43479;PMS5003;29067;35.492;-97.520;2023-12-29T13:19:19;2;2;
43479;PMS5003;29067;35.492;-97.520;2023-12-29T13:21:48;6;6;
43479;PMS5003;29067;35.492;-97.520;2023-12-29T13:24:19;5;4;
43479;PMS5003;29067;35.492;-97.520;2023-12-29T13:26:50;5;5;
43479;PMS5003;29067;35.492;-97.520;2023-12-29T13:29:22;4;4;
43479;PMS5003;29067;35.492;-97.520;2023-12-29T13:31:52;4;4;
43479;PMS5003;29067;35.492;-97.520;2023-12-29T13:34:27;2;2;
43479;PMS5003;29067;35.492;-97.520;2023-12-29T13:37:01;4;4;
43479;PMS5003;29067;35.492;-97.520;2023-12-29T13:39:35;4;2;
43479;PMS5003;29067;35.492;-97.520;2023-12-29T13:42:07;4;4;
43479;PMS5003;29067;35.492;-97.520;2023-12-29T13:44:37;5;5;
43479;PMS5003;29067;35.492;-97.520;2023-12-29T13:47:08;4;4;
43479;PMS5003;29067;35.492;-97.520;2023-12-29T13:49:37;5;5;
43479;PMS5003;29067;35.492;-97.520;2023-12-29T13:52:06;4;4;
43479;PMS5003;29067;35.492;-97.520;2023-12-29T13:54:40;5;4;
43479;PMS5003;29067;35.492;-97.520;2023-12-29T13:57:08;5;4;
43479;PMS5003;29067;35.492;-97.520;2023-12-29T13:59:36;6;4;
43479;PMS5003;29067;35.492;-97.520;2023-12-29T14:02:18;5;5;
43479;PMS5003;29067;35.492;-97.520;2023-12-29T14:04:50;5;5;
43479;PMS5003;29067;35.492;-97.520;2023-12-29T14:07:32;5;4;
43479;PMS5003;29067;35.492;-97.520;2023-12-29T14:10:00;6;4;
43479;PMS5003;29067;35.492;-97.520;2023-12-29T14:12:29;5;5;
43479;PMS5003;29067;35.492;-97.520;2023-12-29T14:15:02;5;5;
43479;PMS5003;29067;35.492;-97.520;2023-12-29T14:17:30;6;5;
43479;PMS5003;29067;35.492;-97.520;2023-12-29T14:19:58;4;4;
43479;PMS5003;29067;35.492;-97.520;2023-12-29T14:22:26;4;4;
43479;PMS5003;29067;35.492;-97.520;2023-12-29T14:24:59;5;4;
43479;PMS5003;29067;35.492;-97.520;2023-12-29T14:27:29;4;4;
43479;PMS5003;29067;35.492;-97.520;2023-12-29T14:29:57;4;2;
43479;PMS5003;29067;35.492;-97.520;2023-12-29T14:32:25;6;6;
43479;PMS5003;29067;35.492;-97.520;2023-12-29T14:34:53;4;4;
43479;PMS5003;29067;35.492;-97.520;2023-12-29T14:37:22;4;4;
43479;PMS5003;29067;35.492;-97.520;2023-12-29T14:39:50;4;2;
43479;PMS5003;29067;35.492;-97.520;2023-12-29T14:42:18;4;4;
43479;PMS5003;29067;35.492;-97.520;2023-12-29T14:44:46;4;4;
43479;PMS5003;29067;35.492;-97.520;2023-12-29T14:47:14;5;4;
43479;PMS5003;29067;35.492;-97.520;2023-12-29T14:49:43;5;3;
43479;PMS5003;29067;35.492;-97.520;2023-12-29T14:52:11;3;3;
43479;PMS5003;29067;35.492;-97.520;2023-12-29T14:54:39;2;2;
43479;PMS5003;29067;35.492;-97.520;2023-12-29T14:57:07;3;2;
43479;PMS5003;29067;35.492;-97.520;2023-12-29T14:59:35;2;2;
43479;PMS5003;29067;35.492;-97.520;2023-12-29T15:02:04;3;2;
43479;PMS5003;29067;35.492;-97.520;2023-12-29T15:04:31;3;2;
43479;PMS5003;29067;35.492;-97.520;2023-12-29T15:07:00;3;3;
43479;PMS5003;29067;35.492;-97.520;2023-12-29T15:09:28;5;5;
43479;PMS5003;29067;35.492;-97.520;2023-12-29T15:11:56;4;3;
43479;PMS5003;29067;35.492;-97.520;2023-12-29T15:14:24;3;2;
43479;PMS5003;29067;35.492;-97.520;2023-12-29T15:16:52;3;3;
43479;PMS5003;29067;35.492;-97.520;2023-12-29T15:19:19;2;2;
43479;PMS5003;29067;35.492;-97.520;2023-12-29T15:21:47;3;3;
43479;PMS5003;29067;35.492;-97.520;2023-12-29T15:24:15;2;2;
43479;PMS5003;29067;35.492;-97.520;2023-12-29T15:26:43;3;3;
43479;PMS5003;29067;35.492;-97.520;2023-12-29T15:29:11;3;3;
43479;PMS5003;29067;35.492;-97.520;2023-12-29T15:31:41;2;2;
43479;PMS5003;29067;35.492;-97.520;2023-12-29T15:34:09;3;3;
43479;PMS5003;29067;35.492;-97.520;2023-12-29T15:36:37;3;3;
43479;PMS5003;29067;35.492;-97.520;2023-12-29T15:39:05;2;2;
43479;PMS5003;29067;35.492;-97.520;2023-12-29T15:41:34;1;1;
43479;PMS5003;29067;35.492;-97.520;2023-12-29T15:44:01;3;3;
43479;PMS5003;29067;35.492;-97.520;2023-12-29T15:46:29;3;3;
43479;PMS5003;29067;35.492;-97.520;2023-12-29T15:48:57;6;5;
43479;PMS5003;29067;35.492;-97.520;2023-12-29T15:51:25;5;5;
43479;PMS5003;29067;35.492;-97.520;2023-12-29T15:53:54;2;2;
43479;PMS5003;29067;35.492;-97.520;2023-12-29T15:56:22;2;2;
43479;PMS5003;29067;35.492;-97.520;2023-12-29T15:58:50;3;3;
43479;PMS5003;29067;35.492;-97.520;2023-12-29T16:01:21;2;2;
43479;PMS5003;29067;35.492;-97.520;2023-12-29T16:03:49;3;3;
43479;PMS5003;29067;35.492;-97.520;2023-12-29T16:06:19;3;3;
43479;PMS5003;29067;35.492;-97.520;2023-12-29T16:08:47;2;2;
43479;PMS5003;29067;35.492;-97.520;2023-12-29T16:11:18;2;2;
43479;PMS5003;29067;35.492;-97.520;2023-12-29T16:13:47;5;3;
43479;PMS5003;29067;35.492;-97.520;2023-12-29T16:16:15;2;2;
43479;PMS5003;29067;35.492;-97.520;2023-12-29T16:18:43;2;2;
43479;PMS5003;29067;35.492;-97.520;2023-12-29T16:21:11;2;2;
43479;PMS5003;29067;35.492;-97.520;2023-12-29T16:23:39;2;2;
43479;PMS5003;29067;35.492;-97.520;2023-12-29T16:26:07;1;1;
43479;PMS5003;29067;35.492;-97.520;2023-12-29T16:28:36;2;2;